Depesze METAR lotnisk w Polsce

METAR – format kodowanego raportu o pogodzie używany w meteorologii lotniczej i prognozie pogody. METAR jest akronimem od ang. Meteorological Aerodrome Report. Typowy METAR zawiera informację o temperaturze, ciśnieniu, temperaturze punktu rosy, sile i kierunku wiatru, opadzie, pokrywie chmur, wysokości podstawy chmur, widzialności, lecz może zawierać też inne informacje (np. stan dróg startowych).

Warszawa-Okęcie (EPWA)

METAR = EPWA 010830Z 14009KT 8000 NSC M01/M03 Q1023 NOSIG

STACJA......... EPWA - Warszawa-Okęcie (WAW)
POMIAR......... Tue Dec 1, 09:30 CET
WIATR.......... południowo wschodni (SE) z prędkością 17 km/h
WIDZIALNOŚĆ.... 8000 metrów
CHMURY......... brak istotnych chmur
TEMPERATURA.... -1°C
T.PUNKTU ROSY.. -3°C
WILGOTNOŚĆ..... 86%
T.ODCZUWALNA... -6°C
CIŚNIENIE...... 1023 hPa
CIŚN.BEZWZGL... 1009 hPa
PROGNOZA....... bez nagłych zmian w ciągu 2h

Sprawdź też: Prognoza pogody Warszawa

Warszawa-Modlin (EPMO)

METAR = EPMO 010830Z 13007KT 5000 BR NSC M01/M02 Q1022 =

STACJA......... EPMO - Warszawa-Modlin (WMI)
POMIAR......... Tue Dec 1, 09:30 CET
WIATR.......... południowo wschodni (SE) z prędkością 13 km/h
WIDZIALNOŚĆ.... 5000 metrów
WARUNKI........ zamglenie 
CHMURY......... brak istotnych chmur
TEMPERATURA.... -1°C
T.PUNKTU ROSY.. -2°C
WILGOTNOŚĆ..... 93%
T.ODCZUWALNA... -6°C
CIŚNIENIE...... 1022 hPa
CIŚN.BEZWZGL... 1009 hPa

Sprawdź też: Prognoza pogody Nowy Dwór Mazowiecki

Kraków-Balice (EPKK)

METAR = EPKK 010830Z 06003KT CAVOK M01/M05 Q1021 R25/19//95

STACJA......... EPKK - Kraków-Balice (KRK)
POMIAR......... Tue Dec 1, 09:30 CET
WIATR.......... wschodni północno-wschodni (ENE) z prędkością 6 km/h
WIDZIALNOŚĆ.... powyżej 10 kilometrów
CHMURY......... bezchmurne niebo
TEMPERATURA.... -1°C
T.PUNKTU ROSY.. -5°C
WILGOTNOŚĆ..... 75%
T.ODCZUWALNA... -3°C
CIŚNIENIE...... 1021 hPa
CIŚN.BEZWZGL... 991 hPa
PAS STARTOWY... pas nr 25: wilgotny na 51-100% pasa, dobra przyczepność hamowania

Sprawdź też: Prognoza pogody Kraków

Łódź-Lublinek (EPLL)

METAR = EPLL 010830Z 15008KT 110V180 CAVOK 00/M03 Q1020

STACJA......... EPLL - Łódź-Lublinek (LCJ)
POMIAR......... Tue Dec 1, 09:30 CET
WIATR.......... południowo południowo-wschodni (SSE) z prędkością 15 km/h
WIDZIALNOŚĆ.... powyżej 10 kilometrów
CHMURY......... bezchmurne niebo
TEMPERATURA.... 0°C
T.PUNKTU ROSY.. -3°C
WILGOTNOŚĆ..... 80%
T.ODCZUWALNA... -4°C
CIŚNIENIE...... 1020 hPa
CIŚN.BEZWZGL... 997 hPa

Sprawdź też: Prognoza pogody Łódź

Wrocław-Strachowice (EPWR)

METAR = EPWR 010830Z 16007KT CAVOK 01/M03 Q1018 R11/29//95

STACJA......... EPWR - Wrocław-Strachowice (WRO)
POMIAR......... Tue Dec 1, 09:30 CET
WIATR.......... południowo południowo-wschodni (SSE) z prędkością 13 km/h
WIDZIALNOŚĆ.... powyżej 10 kilometrów
CHMURY......... bezchmurne niebo
TEMPERATURA.... 1°C
T.PUNKTU ROSY.. -3°C
WILGOTNOŚĆ..... 75%
T.ODCZUWALNA... -3°C
CIŚNIENIE...... 1018 hPa
CIŚN.BEZWZGL... 1003 hPa
PAS STARTOWY... pas nr 11: woda na pasie na 51-100% pasa, dobra przyczepność hamowania

Sprawdź też: Prognoza pogody Wrocław

Katowice-Pyrzowice (EPKT)

METAR = EPKT 010830Z 13007KT CAVOK M02/M05 Q1020

STACJA......... EPKT - Katowice-Pyrzowice (KTW)
POMIAR......... Tue Dec 1, 09:30 CET
WIATR.......... południowo wschodni (SE) z prędkością 13 km/h
WIDZIALNOŚĆ.... powyżej 10 kilometrów
CHMURY......... bezchmurne niebo
TEMPERATURA.... -2°C
T.PUNKTU ROSY.. -5°C
WILGOTNOŚĆ..... 80%
T.ODCZUWALNA... -7°C
CIŚNIENIE...... 1020 hPa
CIŚN.BEZWZGL... 982 hPa

Sprawdź też: Prognoza pogody Katowice

Gdańsk (EPGD)

METAR = EPGD 010830Z 15010KT 8000 BKN008 M00/M02 Q1019

STACJA......... EPGD - Gdańsk im. Lecha Wałęsy (GDN)
POMIAR......... Tue Dec 1, 09:30 CET
WIATR.......... południowo południowo-wschodni (SSE) z prędkością 19 km/h
WIDZIALNOŚĆ.... 8000 metrów
CHMURY......... zachmurzenie średnie (5/8-7/8)
TEMPERATURA.... 0°C
T.PUNKTU ROSY.. -2°C
WILGOTNOŚĆ..... 87%
T.ODCZUWALNA... -5°C
CIŚNIENIE...... 1019 hPa
CIŚN.BEZWZGL... 1000 hPa

Sprawdź też: Prognoza pogody Gdańsk

Poznań-Ławica (EPPO)

METAR = EPPO 010830Z 13009KT CAVOK 01/M02 Q1018

STACJA......... EPPO - Poznań-Ławica (POZ)
POMIAR......... Tue Dec 1, 09:30 CET
WIATR.......... południowo wschodni (SE) z prędkością 17 km/h
WIDZIALNOŚĆ.... powyżej 10 kilometrów
CHMURY......... bezchmurne niebo
TEMPERATURA.... 1°C
T.PUNKTU ROSY.. -2°C
WILGOTNOŚĆ..... 81%
T.ODCZUWALNA... -3°C
CIŚNIENIE...... 1018 hPa
CIŚN.BEZWZGL... 1006 hPa

Sprawdź też: Prognoza pogody Poznań

Rzeszów-Jasionka (EPRZ)

METAR = EPRZ 010830Z 14006KT 9999 OVC033 M00/M04 Q1023

STACJA......... EPRZ - Rzeszów-Jasionka (RZE)
POMIAR......... Tue Dec 1, 09:30 CET
WIATR.......... południowo wschodni (SE) z prędkością 11 km/h
WIDZIALNOŚĆ.... powyżej 10 kilometrów
CHMURY......... zachmurzenie całkowite (8/8)
TEMPERATURA.... 0°C
T.PUNKTU ROSY.. -4°C
WILGOTNOŚĆ..... 75%
T.ODCZUWALNA... -3°C
CIŚNIENIE...... 1023 hPa
CIŚN.BEZWZGL... 996 hPa

Sprawdź też: Prognoza pogody Rzeszów

Szczecin-Goleniów (EPSC)

METAR = EPSC 010830Z 14009KT 9999 SCT025 BKN029 01/M01 Q1016

STACJA......... EPSC - Szczecin-Goleniów (SZZ)
POMIAR......... Tue Dec 1, 09:30 CET
WIATR.......... południowo wschodni (SE) z prędkością 17 km/h
WIDZIALNOŚĆ.... powyżej 10 kilometrów
CHMURY......... zachmurzenie średnie (5/8-7/8)
TEMPERATURA.... 1°C
T.PUNKTU ROSY.. -1°C
WILGOTNOŚĆ..... 87%
T.ODCZUWALNA... -3°C
CIŚNIENIE...... 1016 hPa
CIŚN.BEZWZGL... 1010 hPa

Sprawdź też: Prognoza pogody Szczecin

Lublin-Świdnik (EPLB)

METAR = EPLB 010830Z 14005KT 9999 BKN045 M01/M01 Q1025 =

STACJA......... EPLB - Lublin-Świdnik (LUZ)
POMIAR......... Tue Dec 1, 09:30 CET
WIATR.......... południowo wschodni (SE) z prędkością 9 km/h
WIDZIALNOŚĆ.... powyżej 10 kilometrów
CHMURY......... zachmurzenie średnie (5/8-7/8)
TEMPERATURA.... -1°C
T.PUNKTU ROSY.. -1°C
WILGOTNOŚĆ..... 100%
T.ODCZUWALNA... -4°C
CIŚNIENIE...... 1025 hPa
CIŚN.BEZWZGL... 999 hPa

Sprawdź też: Prognoza pogody Lublin

Bydgoszcz-Szwederowo (EPBY)

METAR = EPBY 010830Z 11006KT 5000 BR FEW006 SCT008 M00/M01 Q1019=

STACJA......... EPBY - Bydgoszcz-Szwederowo (BZG)
POMIAR......... Tue Dec 1, 09:30 CET
WIATR.......... wschodni południowo-wschodni (ESE) z prędkością 11 km/h
WIDZIALNOŚĆ.... 5000 metrów
WARUNKI........ zamglenie 
CHMURY......... zachmurzenie małe (3/8-4/8)
TEMPERATURA.... 0°C
T.PUNKTU ROSY.. -1°C
WILGOTNOŚĆ..... 93%
T.ODCZUWALNA... -3°C
CIŚNIENIE...... 1019 hPa
CIŚN.BEZWZGL... 1010 hPa

Sprawdź też: Prognoza pogody Bydgoszcz

Zielona Góra-Babimost (EPZG)

METAR = EPZG 010830Z 13004KT 090V170 6000 -SN FEW020 BKN046 01/M01 Q1018 =

STACJA......... EPZG - Zielona Góra-Babimost (IEG)
POMIAR......... Tue Dec 1, 09:30 CET
WIATR.......... południowo wschodni (SE) z prędkością 7 km/h
WIDZIALNOŚĆ.... 6000 metrów
WARUNKI........ słaby: śnieg 
CHMURY......... zachmurzenie średnie (5/8-7/8)
TEMPERATURA.... 1°C
T.PUNKTU ROSY.. -1°C
WILGOTNOŚĆ..... 87%
T.ODCZUWALNA... -1°C
CIŚNIENIE...... 1018 hPa
CIŚN.BEZWZGL... 1011 hPa

Sprawdź też: Prognoza pogody Zielona Góra

Szymany Olsztyn-Mazury (EPSY)

METAR = EPSY 010830Z 14006KT 100V180 4200 BR OVC008 M01/M02 Q1022=

STACJA......... EPSY - Olsztyn-Mazury (SZY)
POMIAR......... Tue Dec 1, 09:30 CET
WIATR.......... południowo wschodni (SE) z prędkością 11 km/h
WIDZIALNOŚĆ.... 4200 metrów
WARUNKI........ zamglenie 
CHMURY......... zachmurzenie całkowite (8/8)
TEMPERATURA.... -1°C
T.PUNKTU ROSY.. -2°C
WILGOTNOŚĆ..... 93%
T.ODCZUWALNA... -5°C
CIŚNIENIE...... 1022 hPa
CIŚN.BEZWZGL... 1004 hPa

Sprawdź też: Prognoza pogody Olsztyn